sensor_id;sensor_type;location;lat;lon;timestamp;P1;durP1;ratioP1;P2;durP2;ratioP2
35048;SDS011;21236;48.740;-3.446;2023-01-19T00:00:20;4.20;;;1.20;;
35048;SDS011;21236;48.740;-3.446;2023-01-19T00:02:46;4.57;;;1.70;;
35048;SDS011;21236;48.740;-3.446;2023-01-19T00:05:12;4.38;;;1.23;;
35048;SDS011;21236;48.740;-3.446;2023-01-19T00:07:39;7.18;;;2.20;;
35048;SDS011;21236;48.740;-3.446;2023-01-19T00:10:05;7.70;;;1.73;;
35048;SDS011;21236;48.740;-3.446;2023-01-19T00:12:32;8.30;;;1.75;;
35048;SDS011;21236;48.740;-3.446;2023-01-19T00:14:58;13.23;;;3.00;;
35048;SDS011;21236;48.740;-3.446;2023-01-19T00:17:24;11.80;;;2.30;;
35048;SDS011;21236;48.740;-3.446;2023-01-19T00:19:50;26.35;;;5.70;;
35048;SDS011;21236;48.740;-3.446;2023-01-19T00:22:16;13.07;;;2.40;;
35048;SDS011;21236;48.740;-3.446;2023-01-19T00:24:42;18.88;;;2.67;;
35048;SDS011;21236;48.740;-3.446;2023-01-19T00:27:09;13.43;;;2.08;;
35048;SDS011;21236;48.740;-3.446;2023-01-19T00:29:35;19.17;;;3.00;;
35048;SDS011;21236;48.740;-3.446;2023-01-19T00:32:04;8.40;;;1.15;;
35048;SDS011;21236;48.740;-3.446;2023-01-19T00:34:30;5.55;;;0.88;;
35048;SDS011;21236;48.740;-3.446;2023-01-19T00:37:04;7.80;;;1.13;;
35048;SDS011;21236;48.740;-3.446;2023-01-19T00:39:30;6.07;;;1.63;;
35048;SDS011;21236;48.740;-3.446;2023-01-19T00:41:56;3.47;;;1.05;;
35048;SDS011;21236;48.740;-3.446;2023-01-19T00:44:41;2.90;;;1.00;;
35048;SDS011;21236;48.740;-3.446;2023-01-19T00:47:07;6.45;;;1.05;;
35048;SDS011;21236;48.740;-3.446;2023-01-19T00:49:33;9.27;;;1.25;;
35048;SDS011;21236;48.740;-3.446;2023-01-19T00:51:59;2.15;;;1.30;;
35048;SDS011;21236;48.740;-3.446;2023-01-19T00:54:26;6.00;;;1.25;;
35048;SDS011;21236;48.740;-3.446;2023-01-19T00:56:52;11.52;;;2.08;;
35048;SDS011;21236;48.740;-3.446;2023-01-19T00:59:18;8.95;;;1.90;;
35048;SDS011;21236;48.740;-3.446;2023-01-19T01:01:44;5.75;;;1.73;;
35048;SDS011;21236;48.740;-3.446;2023-01-19T01:04:10;10.68;;;1.95;;
35048;SDS011;21236;48.740;-3.446;2023-01-19T01:06:38;6.85;;;1.40;;
35048;SDS011;21236;48.740;-3.446;2023-01-19T01:09:04;4.47;;;1.85;;
35048;SDS011;21236;48.740;-3.446;2023-01-19T01:11:42;17.33;;;2.38;;
35048;SDS011;21236;48.740;-3.446;2023-01-19T01:14:09;11.00;;;1.80;;
35048;SDS011;21236;48.740;-3.446;2023-01-19T01:16:35;5.57;;;2.17;;
35048;SDS011;21236;48.740;-3.446;2023-01-19T01:19:02;10.77;;;2.20;;
35048;SDS011;21236;48.740;-3.446;2023-01-19T01:21:28;9.02;;;3.47;;
35048;SDS011;21236;48.740;-3.446;2023-01-19T01:23:54;16.77;;;4.07;;
35048;SDS011;21236;48.740;-3.446;2023-01-19T01:26:20;12.75;;;1.90;;
35048;SDS011;21236;48.740;-3.446;2023-01-19T01:28:46;7.20;;;1.70;;
35048;SDS011;21236;48.740;-3.446;2023-01-19T01:31:12;8.43;;;1.52;;
35048;SDS011;21236;48.740;-3.446;2023-01-19T01:33:38;6.28;;;1.80;;
35048;SDS011;21236;48.740;-3.446;2023-01-19T01:36:04;9.65;;;2.67;;
35048;SDS011;21236;48.740;-3.446;2023-01-19T01:38:31;13.80;;;2.15;;
35048;SDS011;21236;48.740;-3.446;2023-01-19T01:40:57;10.18;;;1.90;;
35048;SDS011;21236;48.740;-3.446;2023-01-19T01:43:39;12.57;;;1.95;;
35048;SDS011;21236;48.740;-3.446;2023-01-19T01:46:06;12.38;;;4.50;;
35048;SDS011;21236;48.740;-3.446;2023-01-19T01:48:32;6.63;;;1.60;;
35048;SDS011;21236;48.740;-3.446;2023-01-19T01:50:59;10.05;;;1.83;;
35048;SDS011;21236;48.740;-3.446;2023-01-19T01:53:46;11.98;;;2.13;;
35048;SDS011;21236;48.740;-3.446;2023-01-19T01:56:16;20.67;;;2.25;;
35048;SDS011;21236;48.740;-3.446;2023-01-19T01:58:43;6.45;;;1.98;;
35048;SDS011;21236;48.740;-3.446;2023-01-19T02:01:09;10.27;;;1.55;;
35048;SDS011;21236;48.740;-3.446;2023-01-19T02:03:54;8.95;;;2.47;;
35048;SDS011;21236;48.740;-3.446;2023-01-19T02:06:21;9.82;;;1.90;;
35048;SDS011;21236;48.740;-3.446;2023-01-19T02:08:49;12.10;;;1.50;;
35048;SDS011;21236;48.740;-3.446;2023-01-19T02:11:37;7.88;;;1.90;;
35048;SDS011;21236;48.740;-3.446;2023-01-19T02:14:22;10.80;;;1.60;;
35048;SDS011;21236;48.740;-3.446;2023-01-19T02:16:48;11.48;;;1.60;;
35048;SDS011;21236;48.740;-3.446;2023-01-19T02:19:20;8.43;;;1.35;;
35048;SDS011;21236;48.740;-3.446;2023-01-19T02:24:17;7.15;;;1.95;;
35048;SDS011;21236;48.740;-3.446;2023-01-19T02:26:44;6.90;;;1.48;;
35048;SDS011;21236;48.740;-3.446;2023-01-19T02:29:12;8.30;;;1.50;;
35048;SDS011;21236;48.740;-3.446;2023-01-19T02:31:39;6.40;;;1.25;;
35048;SDS011;21236;48.740;-3.446;2023-01-19T02:34:07;7.25;;;1.30;;
35048;SDS011;21236;48.740;-3.446;2023-01-19T02:36:34;6.93;;;1.42;;
35048;SDS011;21236;48.740;-3.446;2023-01-19T02:39:02;5.57;;;1.42;;
35048;SDS011;21236;48.740;-3.446;2023-01-19T02:41:30;8.38;;;1.33;;
35048;SDS011;21236;48.740;-3.446;2023-01-19T02:43:57;8.75;;;1.25;;
35048;SDS011;21236;48.740;-3.446;2023-01-19T02:46:24;9.00;;;1.58;;
35048;SDS011;21236;48.740;-3.446;2023-01-19T02:48:50;9.70;;;1.85;;
35048;SDS011;21236;48.740;-3.446;2023-01-19T02:51:17;11.13;;;1.63;;
35048;SDS011;21236;48.740;-3.446;2023-01-19T02:53:52;9.32;;;1.58;;
35048;SDS011;21236;48.740;-3.446;2023-01-19T02:56:28;5.78;;;1.40;;
35048;SDS011;21236;48.740;-3.446;2023-01-19T02:59:03;5.80;;;1.88;;
35048;SDS011;21236;48.740;-3.446;2023-01-19T03:09:34;4.25;;;0.80;;
35048;SDS011;21236;48.740;-3.446;2023-01-19T03:12:09;3.70;;;0.98;;
35048;SDS011;21236;48.740;-3.446;2023-01-19T03:14:39;5.03;;;1.30;;
35048;SDS011;21236;48.740;-3.446;2023-01-19T03:17:07;7.45;;;1.27;;
35048;SDS011;21236;48.740;-3.446;2023-01-19T03:19:35;6.03;;;1.20;;
35048;SDS011;21236;48.740;-3.446;2023-01-19T03:22:03;6.70;;;1.40;;
35048;SDS011;21236;48.740;-3.446;2023-01-19T03:24:31;3.67;;;1.00;;
35048;SDS011;21236;48.740;-3.446;2023-01-19T03:27:00;5.07;;;1.02;;
35048;SDS011;21236;48.740;-3.446;2023-01-19T03:29:27;5.97;;;0.90;;
35048;SDS011;21236;48.740;-3.446;2023-01-19T03:31:55;6.30;;;0.90;;
35048;SDS011;21236;48.740;-3.446;2023-01-19T03:34:21;11.40;;;0.98;;
35048;SDS011;21236;48.740;-3.446;2023-01-19T03:36:52;6.40;;;1.10;;
35048;SDS011;21236;48.740;-3.446;2023-01-19T03:39:20;8.38;;;1.10;;
35048;SDS011;21236;48.740;-3.446;2023-01-19T03:41:49;2.65;;;0.90;;
35048;SDS011;21236;48.740;-3.446;2023-01-19T03:44:16;4.00;;;0.80;;
35048;SDS011;21236;48.740;-3.446;2023-01-19T03:46:43;6.65;;;1.15;;
35048;SDS011;21236;48.740;-3.446;2023-01-19T03:49:10;8.65;;;1.02;;
35048;SDS011;21236;48.740;-3.446;2023-01-19T03:51:36;6.22;;;1.10;;
35048;SDS011;21236;48.740;-3.446;2023-01-19T03:54:03;6.38;;;1.20;;
35048;SDS011;21236;48.740;-3.446;2023-01-19T03:56:30;7.60;;;1.85;;
35048;SDS011;21236;48.740;-3.446;2023-01-19T03:58:56;5.55;;;1.13;;
35048;SDS011;21236;48.740;-3.446;2023-01-19T04:01:22;10.38;;;2.95;;
35048;SDS011;21236;48.740;-3.446;2023-01-19T04:03:49;7.93;;;1.33;;
35048;SDS011;21236;48.740;-3.446;2023-01-19T04:06:15;13.82;;;2.42;;
35048;SDS011;21236;48.740;-3.446;2023-01-19T04:08:42;4.22;;;1.35;;
35048;SDS011;21236;48.740;-3.446;2023-01-19T04:11:08;3.70;;;1.13;;
35048;SDS011;21236;48.740;-3.446;2023-01-19T04:13:35;9.13;;;1.95;;
35048;SDS011;21236;48.740;-3.446;2023-01-19T04:16:01;5.57;;;0.80;;
35048;SDS011;21236;48.740;-3.446;2023-01-19T04:18:28;1.00;;;0.70;;
35048;SDS011;21236;48.740;-3.446;2023-01-19T04:20:58;3.60;;;1.08;;
35048;SDS011;21236;48.740;-3.446;2023-01-19T04:23:25;5.82;;;1.35;;
35048;SDS011;21236;48.740;-3.446;2023-01-19T04:25:55;5.45;;;1.25;;
35048;SDS011;21236;48.740;-3.446;2023-01-19T04:28:22;3.78;;;0.95;;
35048;SDS011;21236;48.740;-3.446;2023-01-19T04:30:49;7.70;;;1.25;;
35048;SDS011;21236;48.740;-3.446;2023-01-19T04:33:16;4.45;;;1.52;;
35048;SDS011;21236;48.740;-3.446;2023-01-19T04:35:45;2.70;;;0.90;;
35048;SDS011;21236;48.740;-3.446;2023-01-19T04:38:12;7.10;;;1.25;;
35048;SDS011;21236;48.740;-3.446;2023-01-19T04:40:38;5.90;;;1.30;;
35048;SDS011;21236;48.740;-3.446;2023-01-19T04:43:04;6.68;;;1.08;;
35048;SDS011;21236;48.740;-3.446;2023-01-19T04:45:31;17.02;;;3.72;;
35048;SDS011;21236;48.740;-3.446;2023-01-19T04:47:57;3.50;;;1.15;;
35048;SDS011;21236;48.740;-3.446;2023-01-19T04:50:23;4.35;;;1.10;;
35048;SDS011;21236;48.740;-3.446;2023-01-19T04:52:49;25.65;;;4.15;;
35048;SDS011;21236;48.740;-3.446;2023-01-19T04:55:15;8.30;;;1.30;;
35048;SDS011;21236;48.740;-3.446;2023-01-19T04:57:42;9.43;;;1.42;;
35048;SDS011;21236;48.740;-3.446;2023-01-19T05:00:10;4.88;;;1.42;;
35048;SDS011;21236;48.740;-3.446;2023-01-19T05:02:36;8.30;;;1.50;;
35048;SDS011;21236;48.740;-3.446;2023-01-19T05:05:02;7.82;;;1.60;;
35048;SDS011;21236;48.740;-3.446;2023-01-19T05:07:28;8.52;;;1.92;;
35048;SDS011;21236;48.740;-3.446;2023-01-19T05:09:54;8.05;;;2.17;;
35048;SDS011;21236;48.740;-3.446;2023-01-19T05:12:20;7.70;;;1.40;;
35048;SDS011;21236;48.740;-3.446;2023-01-19T05:14:47;8.45;;;1.50;;
35048;SDS011;21236;48.740;-3.446;2023-01-19T05:17:13;12.60;;;3.45;;
35048;SDS011;21236;48.740;-3.446;2023-01-19T05:19:39;7.00;;;1.45;;
35048;SDS011;21236;48.740;-3.446;2023-01-19T05:22:05;15.20;;;2.40;;
35048;SDS011;21236;48.740;-3.446;2023-01-19T05:24:31;12.57;;;2.17;;
35048;SDS011;21236;48.740;-3.446;2023-01-19T05:26:57;5.20;;;1.88;;
35048;SDS011;21236;48.740;-3.446;2023-01-19T05:29:23;17.95;;;2.53;;
35048;SDS011;21236;48.740;-3.446;2023-01-19T05:31:49;11.57;;;2.17;;
35048;SDS011;21236;48.740;-3.446;2023-01-19T05:34:16;14.95;;;1.90;;
35048;SDS011;21236;48.740;-3.446;2023-01-19T05:36:42;11.90;;;1.70;;
35048;SDS011;21236;48.740;-3.446;2023-01-19T05:39:08;11.30;;;1.73;;
35048;SDS011;21236;48.740;-3.446;2023-01-19T05:41:34;7.57;;;1.90;;
35048;SDS011;21236;48.740;-3.446;2023-01-19T05:44:00;9.40;;;1.75;;
35048;SDS011;21236;48.740;-3.446;2023-01-19T05:46:26;12.35;;;1.88;;
35048;SDS011;21236;48.740;-3.446;2023-01-19T05:48:53;13.00;;;2.47;;
35048;SDS011;21236;48.740;-3.446;2023-01-19T05:51:19;10.25;;;1.50;;
35048;SDS011;21236;48.740;-3.446;2023-01-19T05:53:45;8.73;;;1.50;;
35048;SDS011;21236;48.740;-3.446;2023-01-19T05:56:11;12.48;;;2.10;;
35048;SDS011;21236;48.740;-3.446;2023-01-19T05:58:37;11.70;;;2.05;;
35048;SDS011;21236;48.740;-3.446;2023-01-19T06:01:04;8.70;;;1.92;;
35048;SDS011;21236;48.740;-3.446;2023-01-19T06:03:31;7.72;;;1.77;;
35048;SDS011;21236;48.740;-3.446;2023-01-19T06:05:58;6.15;;;1.80;;
35048;SDS011;21236;48.740;-3.446;2023-01-19T06:08:24;4.47;;;1.58;;
35048;SDS011;21236;48.740;-3.446;2023-01-19T06:10:50;10.45;;;1.88;;
35048;SDS011;21236;48.740;-3.446;2023-01-19T06:13:16;12.63;;;3.33;;
35048;SDS011;21236;48.740;-3.446;2023-01-19T06:15:43;7.75;;;2.15;;
35048;SDS011;21236;48.740;-3.446;2023-01-19T06:18:09;5.30;;;1.60;;
35048;SDS011;21236;48.740;-3.446;2023-01-19T06:20:35;8.50;;;1.70;;
35048;SDS011;21236;48.740;-3.446;2023-01-19T06:23:02;6.70;;;1.60;;
35048;SDS011;21236;48.740;-3.446;2023-01-19T06:25:28;9.30;;;1.80;;
35048;SDS011;21236;48.740;-3.446;2023-01-19T06:27:54;11.00;;;1.65;;
35048;SDS011;21236;48.740;-3.446;2023-01-19T06:30:20;13.93;;;2.30;;
35048;SDS011;21236;48.740;-3.446;2023-01-19T06:32:46;6.15;;;2.00;;
35048;SDS011;21236;48.740;-3.446;2023-01-19T06:35:12;8.45;;;3.55;;
35048;SDS011;21236;48.740;-3.446;2023-01-19T06:37:39;6.72;;;3.25;;
35048;SDS011;21236;48.740;-3.446;2023-01-19T06:40:05;11.88;;;2.13;;
35048;SDS011;21236;48.740;-3.446;2023-01-19T06:42:32;4.72;;;1.67;;
35048;SDS011;21236;48.740;-3.446;2023-01-19T06:44:58;3.97;;;2.10;;
35048;SDS011;21236;48.740;-3.446;2023-01-19T06:47:24;8.00;;;2.60;;
35048;SDS011;21236;48.740;-3.446;2023-01-19T06:49:50;13.07;;;3.40;;
35048;SDS011;21236;48.740;-3.446;2023-01-19T06:52:17;8.80;;;2.78;;
35048;SDS011;21236;48.740;-3.446;2023-01-19T06:54:44;14.82;;;5.25;;
35048;SDS011;21236;48.740;-3.446;2023-01-19T06:57:11;13.65;;;6.28;;
35048;SDS011;21236;48.740;-3.446;2023-01-19T06:59:37;10.60;;;5.15;;
35048;SDS011;21236;48.740;-3.446;2023-01-19T07:02:03;10.00;;;4.60;;
35048;SDS011;21236;48.740;-3.446;2023-01-19T07:04:30;12.90;;;4.88;;
35048;SDS011;21236;48.740;-3.446;2023-01-19T07:06:56;12.23;;;2.95;;
35048;SDS011;21236;48.740;-3.446;2023-01-19T07:09:22;11.75;;;3.92;;
35048;SDS011;21236;48.740;-3.446;2023-01-19T07:11:49;13.43;;;4.78;;
35048;SDS011;21236;48.740;-3.446;2023-01-19T07:14:15;7.38;;;3.55;;
35048;SDS011;21236;48.740;-3.446;2023-01-19T07:16:42;8.68;;;4.07;;
35048;SDS011;21236;48.740;-3.446;2023-01-19T07:19:08;16.80;;;10.15;;
35048;SDS011;21236;48.740;-3.446;2023-01-19T07:21:35;18.10;;;7.57;;
35048;SDS011;21236;48.740;-3.446;2023-01-19T07:24:01;15.88;;;8.35;;
35048;SDS011;21236;48.740;-3.446;2023-01-19T07:26:27;10.18;;;4.55;;
35048;SDS011;21236;48.740;-3.446;2023-01-19T07:28:54;9.68;;;3.88;;
35048;SDS011;21236;48.740;-3.446;2023-01-19T07:31:21;12.75;;;3.15;;
35048;SDS011;21236;48.740;-3.446;2023-01-19T07:33:47;8.13;;;3.17;;
35048;SDS011;21236;48.740;-3.446;2023-01-19T07:36:13;15.32;;;4.45;;
35048;SDS011;21236;48.740;-3.446;2023-01-19T07:38:39;8.07;;;3.25;;
35048;SDS011;21236;48.740;-3.446;2023-01-19T07:41:06;12.73;;;3.75;;
35048;SDS011;21236;48.740;-3.446;2023-01-19T07:43:33;7.85;;;3.00;;
35048;SDS011;21236;48.740;-3.446;2023-01-19T07:46:01;9.93;;;3.78;;
35048;SDS011;21236;48.740;-3.446;2023-01-19T07:48:28;10.50;;;3.30;;
35048;SDS011;21236;48.740;-3.446;2023-01-19T07:51:00;13.32;;;3.10;;
35048;SDS011;21236;48.740;-3.446;2023-01-19T07:53:29;9.95;;;4.18;;
35048;SDS011;21236;48.740;-3.446;2023-01-19T07:55:55;13.77;;;3.03;;
35048;SDS011;21236;48.740;-3.446;2023-01-19T07:58:22;14.40;;;3.78;;
35048;SDS011;21236;48.740;-3.446;2023-01-19T08:00:49;40.20;;;15.52;;
35048;SDS011;21236;48.740;-3.446;2023-01-19T08:03:15;42.63;;;20.52;;
35048;SDS011;21236;48.740;-3.446;2023-01-19T08:05:42;36.63;;;20.65;;
35048;SDS011;21236;48.740;-3.446;2023-01-19T08:08:08;36.40;;;16.88;;
35048;SDS011;21236;48.740;-3.446;2023-01-19T08:10:35;38.33;;;15.13;;
35048;SDS011;21236;48.740;-3.446;2023-01-19T08:13:01;32.20;;;14.23;;
35048;SDS011;21236;48.740;-3.446;2023-01-19T08:15:27;39.10;;;13.82;;
35048;SDS011;21236;48.740;-3.446;2023-01-19T08:17:54;24.17;;;10.48;;
35048;SDS011;21236;48.740;-3.446;2023-01-19T08:20:20;22.48;;;7.65;;
35048;SDS011;21236;48.740;-3.446;2023-01-19T08:22:47;14.68;;;4.15;;
35048;SDS011;21236;48.740;-3.446;2023-01-19T08:25:14;17.30;;;3.20;;
35048;SDS011;21236;48.740;-3.446;2023-01-19T08:27:40;8.10;;;2.30;;
35048;SDS011;21236;48.740;-3.446;2023-01-19T08:30:06;8.18;;;2.63;;
35048;SDS011;21236;48.740;-3.446;2023-01-19T08:32:32;14.10;;;4.43;;
35048;SDS011;21236;48.740;-3.446;2023-01-19T08:34:58;11.13;;;3.20;;
35048;SDS011;21236;48.740;-3.446;2023-01-19T08:37:25;7.93;;;3.50;;
35048;SDS011;21236;48.740;-3.446;2023-01-19T08:39:51;13.70;;;3.70;;
35048;SDS011;21236;48.740;-3.446;2023-01-19T08:42:18;9.88;;;3.30;;
35048;SDS011;21236;48.740;-3.446;2023-01-19T08:44:44;13.02;;;4.18;;
35048;SDS011;21236;48.740;-3.446;2023-01-19T08:47:10;16.92;;;5.32;;
35048;SDS011;21236;48.740;-3.446;2023-01-19T08:49:36;19.35;;;7.13;;
35048;SDS011;21236;48.740;-3.446;2023-01-19T08:52:03;26.75;;;7.88;;
35048;SDS011;21236;48.740;-3.446;2023-01-19T08:54:29;28.50;;;8.07;;
35048;SDS011;21236;48.740;-3.446;2023-01-19T08:56:55;21.33;;;7.97;;
35048;SDS011;21236;48.740;-3.446;2023-01-19T08:59:21;24.60;;;7.75;;
35048;SDS011;21236;48.740;-3.446;2023-01-19T09:01:47;19.35;;;6.85;;
35048;SDS011;21236;48.740;-3.446;2023-01-19T09:04:13;16.13;;;5.78;;
35048;SDS011;21236;48.740;-3.446;2023-01-19T09:06:39;18.10;;;5.50;;
35048;SDS011;21236;48.740;-3.446;2023-01-19T09:09:05;19.65;;;5.80;;
35048;SDS011;21236;48.740;-3.446;2023-01-19T09:11:32;17.55;;;6.53;;
35048;SDS011;21236;48.740;-3.446;2023-01-19T09:13:59;19.35;;;10.45;;
35048;SDS011;21236;48.740;-3.446;2023-01-19T09:16:25;19.67;;;9.30;;
35048;SDS011;21236;48.740;-3.446;2023-01-19T09:18:52;26.25;;;11.32;;
35048;SDS011;21236;48.740;-3.446;2023-01-19T09:21:18;41.55;;;15.25;;
35048;SDS011;21236;48.740;-3.446;2023-01-19T09:23:44;28.35;;;9.50;;
35048;SDS011;21236;48.740;-3.446;2023-01-19T09:26:11;22.30;;;7.25;;
35048;SDS011;21236;48.740;-3.446;2023-01-19T09:28:37;14.90;;;4.05;;
35048;SDS011;21236;48.740;-3.446;2023-01-19T09:31:04;16.75;;;4.80;;
35048;SDS011;21236;48.740;-3.446;2023-01-19T09:33:31;18.15;;;6.25;;
35048;SDS011;21236;48.740;-3.446;2023-01-19T09:35:57;15.85;;;7.05;;
35048;SDS011;21236;48.740;-3.446;2023-01-19T09:38:23;13.90;;;7.53;;
35048;SDS011;21236;48.740;-3.446;2023-01-19T09:40:52;18.08;;;8.45;;
35048;SDS011;21236;48.740;-3.446;2023-01-19T09:43:30;18.08;;;8.85;;
35048;SDS011;21236;48.740;-3.446;2023-01-19T09:45:59;16.25;;;7.75;;
35048;SDS011;21236;48.740;-3.446;2023-01-19T09:50:52;16.08;;;6.40;;
35048;SDS011;21236;48.740;-3.446;2023-01-19T09:53:29;17.08;;;7.57;;
35048;SDS011;21236;48.740;-3.446;2023-01-19T09:55:58;29.77;;;9.95;;
35048;SDS011;21236;48.740;-3.446;2023-01-19T09:58:24;11.65;;;4.03;;
35048;SDS011;21236;48.740;-3.446;2023-01-19T10:00:51;10.73;;;2.65;;
35048;SDS011;21236;48.740;-3.446;2023-01-19T10:03:20;9.93;;;3.47;;
35048;SDS011;21236;48.740;-3.446;2023-01-19T10:06:03;11.65;;;2.80;;
35048;SDS011;21236;48.740;-3.446;2023-01-19T10:11:02;10.53;;;3.60;;
35048;SDS011;21236;48.740;-3.446;2023-01-19T10:13:45;17.77;;;3.08;;
35048;SDS011;21236;48.740;-3.446;2023-01-19T10:16:31;13.90;;;2.45;;
35048;SDS011;21236;48.740;-3.446;2023-01-19T10:19:01;13.75;;;3.03;;
35048;SDS011;21236;48.740;-3.446;2023-01-19T10:21:41;10.32;;;2.38;;
35048;SDS011;21236;48.740;-3.446;2023-01-19T10:26:47;6.57;;;2.63;;
35048;SDS011;21236;48.740;-3.446;2023-01-19T10:29:20;11.35;;;3.03;;
35048;SDS011;21236;48.740;-3.446;2023-01-19T10:31:47;10.50;;;3.10;;
35048;SDS011;21236;48.740;-3.446;2023-01-19T10:34:14;6.15;;;3.03;;
35048;SDS011;21236;48.740;-3.446;2023-01-19T10:36:43;15.88;;;6.22;;
35048;SDS011;21236;48.740;-3.446;2023-01-19T10:39:10;14.15;;;5.47;;
35048;SDS011;21236;48.740;-3.446;2023-01-19T10:44:04;12.70;;;4.93;;
35048;SDS011;21236;48.740;-3.446;2023-01-19T10:46:36;17.08;;;5.97;;
35048;SDS011;21236;48.740;-3.446;2023-01-19T10:49:03;14.07;;;4.50;;
35048;SDS011;21236;48.740;-3.446;2023-01-19T10:51:29;12.68;;;3.53;;
35048;SDS011;21236;48.740;-3.446;2023-01-19T10:53:59;15.73;;;3.95;;
35048;SDS011;21236;48.740;-3.446;2023-01-19T10:56:28;16.38;;;4.50;;
35048;SDS011;21236;48.740;-3.446;2023-01-19T10:58:56;8.90;;;3.17;;
35048;SDS011;21236;48.740;-3.446;2023-01-19T11:01:23;11.95;;;3.15;;
35048;SDS011;21236;48.740;-3.446;2023-01-19T11:03:50;15.10;;;4.53;;
35048;SDS011;21236;48.740;-3.446;2023-01-19T11:06:22;12.80;;;3.50;;
35048;SDS011;21236;48.740;-3.446;2023-01-19T11:08:49;7.03;;;3.17;;
35048;SDS011;21236;48.740;-3.446;2023-01-19T11:11:16;8.63;;;4.50;;
35048;SDS011;21236;48.740;-3.446;2023-01-19T11:13:43;14.45;;;4.75;;
35048;SDS011;21236;48.740;-3.446;2023-01-19T11:16:18;10.70;;;2.85;;
35048;SDS011;21236;48.740;-3.446;2023-01-19T11:18:49;9.43;;;2.78;;
35048;SDS011;21236;48.740;-3.446;2023-01-19T11:21:16;8.23;;;3.55;;
35048;SDS011;21236;48.740;-3.446;2023-01-19T11:23:46;6.30;;;2.53;;
35048;SDS011;21236;48.740;-3.446;2023-01-19T11:28:54;18.17;;;3.67;;
35048;SDS011;21236;48.740;-3.446;2023-01-19T11:33:54;10.53;;;5.97;;
35048;SDS011;21236;48.740;-3.446;2023-01-19T11:38:51;15.10;;;4.55;;
35048;SDS011;21236;48.740;-3.446;2023-01-19T11:41:21;10.73;;;2.65;;
35048;SDS011;21236;48.740;-3.446;2023-01-19T11:43:49;14.80;;;4.97;;
35048;SDS011;21236;48.740;-3.446;2023-01-19T11:46:16;8.05;;;2.67;;
35048;SDS011;21236;48.740;-3.446;2023-01-19T11:48:51;14.88;;;2.90;;
35048;SDS011;21236;48.740;-3.446;2023-01-19T11:51:26;14.75;;;3.35;;
35048;SDS011;21236;48.740;-3.446;2023-01-19T11:53:52;17.38;;;3.92;;
35048;SDS011;21236;48.740;-3.446;2023-01-19T11:56:20;11.68;;;3.08;;
35048;SDS011;21236;48.740;-3.446;2023-01-19T11:58:47;10.23;;;3.65;;
35048;SDS011;21236;48.740;-3.446;2023-01-19T12:01:23;6.28;;;1.80;;
35048;SDS011;21236;48.740;-3.446;2023-01-19T12:06:24;7.82;;;2.30;;
35048;SDS011;21236;48.740;-3.446;2023-01-19T12:08:51;9.13;;;2.15;;
35048;SDS011;21236;48.740;-3.446;2023-01-19T12:11:20;30.10;;;5.53;;
35048;SDS011;21236;48.740;-3.446;2023-01-19T12:13:48;10.85;;;3.33;;
35048;SDS011;21236;48.740;-3.446;2023-01-19T12:16:21;8.88;;;2.20;;
35048;SDS011;21236;48.740;-3.446;2023-01-19T12:18:49;8.60;;;2.58;;
35048;SDS011;21236;48.740;-3.446;2023-01-19T12:21:17;7.88;;;1.73;;
35048;SDS011;21236;48.740;-3.446;2023-01-19T12:29:14;9.73;;;1.92;;
35048;SDS011;21236;48.740;-3.446;2023-01-19T12:31:42;12.82;;;2.40;;
35048;SDS011;21236;48.740;-3.446;2023-01-19T12:34:35;10.02;;;2.25;;
35048;SDS011;21236;48.740;-3.446;2023-01-19T12:37:01;7.22;;;2.53;;
35048;SDS011;21236;48.740;-3.446;2023-01-19T12:39:30;9.38;;;2.05;;
35048;SDS011;21236;48.740;-3.446;2023-01-19T12:42:05;15.88;;;5.40;;
35048;SDS011;21236;48.740;-3.446;2023-01-19T12:44:32;10.40;;;2.50;;
35048;SDS011;21236;48.740;-3.446;2023-01-19T12:47:19;7.60;;;1.55;;
35048;SDS011;21236;48.740;-3.446;2023-01-19T12:49:50;8.98;;;2.72;;
35048;SDS011;21236;48.740;-3.446;2023-01-19T12:52:25;7.15;;;2.13;;
35048;SDS011;21236;48.740;-3.446;2023-01-19T12:59:57;10.48;;;2.17;;
35048;SDS011;21236;48.740;-3.446;2023-01-19T13:13:34;6.30;;;2.00;;
35048;SDS011;21236;48.740;-3.446;2023-01-19T13:15:53;13.60;;;3.33;;
35048;SDS011;21236;48.740;-3.446;2023-01-19T13:18:23;6.35;;;2.97;;
35048;SDS011;21236;48.740;-3.446;2023-01-19T13:21:00;7.30;;;2.72;;
35048;SDS011;21236;48.740;-3.446;2023-01-19T13:23:27;10.48;;;2.83;;
35048;SDS011;21236;48.740;-3.446;2023-01-19T13:25:58;11.07;;;1.63;;
35048;SDS011;21236;48.740;-3.446;2023-01-19T13:28:36;12.75;;;1.83;;
35048;SDS011;21236;48.740;-3.446;2023-01-19T13:31:03;4.55;;;1.27;;
35048;SDS011;21236;48.740;-3.446;2023-01-19T13:36:20;6.50;;;1.40;;
35048;SDS011;21236;48.740;-3.446;2023-01-19T13:38:48;6.68;;;1.10;;
35048;SDS011;21236;48.740;-3.446;2023-01-19T13:41:15;3.97;;;1.20;;
35048;SDS011;21236;48.740;-3.446;2023-01-19T13:43:42;3.72;;;1.02;;
35048;SDS011;21236;48.740;-3.446;2023-01-19T13:46:11;8.52;;;1.65;;
35048;SDS011;21236;48.740;-3.446;2023-01-19T13:48:38;8.20;;;2.00;;
35048;SDS011;21236;48.740;-3.446;2023-01-19T13:51:06;4.28;;;1.17;;
35048;SDS011;21236;48.740;-3.446;2023-01-19T13:53:33;3.95;;;1.48;;
35048;SDS011;21236;48.740;-3.446;2023-01-19T13:58:32;6.95;;;1.50;;
35048;SDS011;21236;48.740;-3.446;2023-01-19T14:00:58;5.32;;;1.10;;
35048;SDS011;21236;48.740;-3.446;2023-01-19T14:03:24;4.53;;;1.15;;
35048;SDS011;21236;48.740;-3.446;2023-01-19T14:05:51;10.77;;;1.48;;
35048;SDS011;21236;48.740;-3.446;2023-01-19T14:08:18;5.80;;;1.20;;
35048;SDS011;21236;48.740;-3.446;2023-01-19T14:13:27;8.63;;;1.60;;
35048;SDS011;21236;48.740;-3.446;2023-01-19T14:16:03;3.42;;;1.10;;
35048;SDS011;21236;48.740;-3.446;2023-01-19T14:18:30;6.55;;;1.20;;
35048;SDS011;21236;48.740;-3.446;2023-01-19T14:20:57;7.60;;;2.17;;
35048;SDS011;21236;48.740;-3.446;2023-01-19T14:23:35;4.93;;;1.13;;
35048;SDS011;21236;48.740;-3.446;2023-01-19T14:26:02;6.97;;;1.10;;
35048;SDS011;21236;48.740;-3.446;2023-01-19T14:30:55;5.20;;;1.67;;
35048;SDS011;21236;48.740;-3.446;2023-01-19T14:33:34;2.22;;;0.93;;
35048;SDS011;21236;48.740;-3.446;2023-01-19T14:36:17;3.80;;;0.90;;
35048;SDS011;21236;48.740;-3.446;2023-01-19T14:38:46;4.80;;;1.30;;
35048;SDS011;21236;48.740;-3.446;2023-01-19T14:43:58;5.07;;;2.10;;
35048;SDS011;21236;48.740;-3.446;2023-01-19T14:46:25;6.75;;;1.60;;
35048;SDS011;21236;48.740;-3.446;2023-01-19T14:48:51;7.45;;;1.60;;
35048;SDS011;21236;48.740;-3.446;2023-01-19T14:51:21;5.97;;;1.25;;
35048;SDS011;21236;48.740;-3.446;2023-01-19T14:53:54;4.25;;;1.35;;
35048;SDS011;21236;48.740;-3.446;2023-01-19T14:56:24;3.75;;;1.10;;
35048;SDS011;21236;48.740;-3.446;2023-01-19T14:58:51;5.03;;;1.20;;
35048;SDS011;21236;48.740;-3.446;2023-01-19T15:01:17;4.95;;;1.17;;
35048;SDS011;21236;48.740;-3.446;2023-01-19T15:03:43;7.63;;;1.45;;
35048;SDS011;21236;48.740;-3.446;2023-01-19T15:06:11;3.45;;;1.45;;
35048;SDS011;21236;48.740;-3.446;2023-01-19T15:08:38;5.13;;;1.45;;
35048;SDS011;21236;48.740;-3.446;2023-01-19T15:11:11;3.42;;;1.15;;
35048;SDS011;21236;48.740;-3.446;2023-01-19T15:13:38;7.93;;;1.30;;
35048;SDS011;21236;48.740;-3.446;2023-01-19T15:16:05;4.13;;;1.20;;
35048;SDS011;21236;48.740;-3.446;2023-01-19T15:18:33;5.13;;;2.03;;
35048;SDS011;21236;48.740;-3.446;2023-01-19T15:20:59;5.72;;;1.23;;
35048;SDS011;21236;48.740;-3.446;2023-01-19T15:23:27;7.22;;;1.27;;
35048;SDS011;21236;48.740;-3.446;2023-01-19T15:25:57;10.32;;;1.63;;
35048;SDS011;21236;48.740;-3.446;2023-01-19T15:28:24;9.63;;;1.42;;
35048;SDS011;21236;48.740;-3.446;2023-01-19T15:30:50;4.93;;;1.17;;
35048;SDS011;21236;48.740;-3.446;2023-01-19T15:33:22;13.10;;;1.75;;
35048;SDS011;21236;48.740;-3.446;2023-01-19T15:35:48;6.22;;;1.80;;
35048;SDS011;21236;48.740;-3.446;2023-01-19T15:38:14;3.88;;;1.52;;